Time;durP1;ratioP1;P1;durP2;ratioP2;P2;SDS_P1;SDS_P2;PMS_P1;PMS_P2;Temp;Humidity;BMP_temperature;BMP_pressure;BME280_temperature;BME280_humidity;BME280_pressure;Samples;Min_cycle;Max_cycle;Signal;HPM_P1;HPM_P2
2022/09/16 00:00:50;;;;;;;4.72;4.05;;;;;;;18.28;87.72;99600.25;453187;117;923045;-76
2022/09/16 00:01:53;;;;;;;4.15;3.69;;;;;;;18.28;87.84;99603.02;453087;117;922470;-76
2022/09/16 00:02:57;;;;;;;4.59;4.19;;;;;;;18.29;87.89;99603.84;453055;115;930629;-76
2022/09/16 00:04:00;;;;;;;4.30;3.93;;;;;;;18.28;87.84;99597.49;453115;117;923142;-76
2022/09/16 00:05:03;;;;;;;7.42;3.91;;;;;;;18.28;87.87;99597.49;453170;117;923043;-76
2022/09/16 00:06:06;;;;;;;4.76;4.20;;;;;;;18.28;87.85;99594.73;453167;117;922589;-76
2022/09/16 00:07:09;;;;;;;4.57;3.81;;;;;;;18.29;87.85;99603.84;460650;115;922702;-76
2022/09/16 00:08:14;;;;;;;4.39;3.63;;;;;;;18.28;87.82;99599.42;461653;115;922670;-76
2022/09/16 00:09:17;;;;;;;4.63;3.86;;;;;;;18.27;87.85;99598.59;461447;115;922527;-76
2022/09/16 00:10:22;;;;;;;3.31;2.91;;;;;;;18.27;87.82;99595.84;461479;115;930383;-76
2022/09/16 00:11:26;;;;;;;5.88;3.58;;;;;;;18.27;87.84;99597.77;461534;115;923388;-76
2022/09/16 00:12:28;;;;;;;5.19;3.88;;;;;;;18.27;87.86;99595.84;461604;113;922575;-75
2022/09/16 00:13:31;;;;;;;4.29;3.67;;;;;;;18.27;87.88;99595.02;461607;115;922578;-76
2022/09/16 00:14:34;;;;;;;6.24;3.85;;;;;;;18.26;87.84;99588.67;461564;115;922619;-76
2022/09/16 00:15:39;;;;;;;4.64;4.23;;;;;;;18.25;87.83;99584.25;457701;115;922850;-75
2022/09/16 00:16:42;;;;;;;4.61;4.07;;;;;;;18.26;87.84;99585.08;451757;117;922541;-76
2022/09/16 00:17:44;;;;;;;5.62;4.03;;;;;;;18.25;87.80;99589.77;451904;117;930502;-76
2022/09/16 00:18:47;;;;;;;3.49;3.23;;;;;;;18.25;87.85;99586.19;452043;117;922991;-76
2022/09/16 00:19:50;;;;;;;4.89;3.44;;;;;;;18.24;87.83;99590.09;451951;117;923016;-76
2022/09/16 00:20:53;;;;;;;4.37;3.98;;;;;;;18.24;87.84;99596.44;451963;117;922593;-76
2022/09/16 00:21:56;;;;;;;4.56;3.81;;;;;;;18.24;87.89;99590.09;451939;117;922592;-76
2022/09/16 00:22:59;;;;;;;4.56;3.91;;;;;;;18.23;87.94;99586.50;451931;117;922874;-77
2022/09/16 00:24:02;;;;;;;3.91;3.55;;;;;;;18.22;88.01;99593.12;451925;117;922944;-75
2022/09/16 00:25:06;;;;;;;4.62;4.07;;;;;;;18.23;87.94;99591.19;451957;117;922952;-77
2022/09/16 00:26:09;;;;;;;4.82;3.58;;;;;;;18.23;88.01;99583.74;451864;117;922515;-77
2022/09/16 00:27:12;;;;;;;5.25;4.62;;;;;;;18.24;87.97;99590.09;451974;117;922745;-77
2022/09/16 00:28:15;;;;;;;4.20;3.79;;;;;;;18.24;88.02;99587.33;451961;117;922699;-77
2022/09/16 00:29:18;;;;;;;4.71;4.25;;;;;;;18.24;88.04;99584.56;451994;117;922566;-78
2022/09/16 00:30:21;;;;;;;4.16;3.71;;;;;;;18.24;88.08;99590.91;450220;117;922855;-78
2022/09/16 00:31:24;;;;;;;7.21;4.24;;;;;;;18.25;88.10;99586.19;453759;116;922474;-77
2022/09/16 00:32:27;;;;;;;5.69;4.53;;;;;;;18.25;88.09;99583.43;457334;116;922590;-76
2022/09/16 00:33:30;;;;;;;4.64;4.16;;;;;;;18.26;88.10;99582.32;457382;116;923021;-76
2022/09/16 00:34:33;;;;;;;4.68;4.29;;;;;;;18.26;88.18;99587.84;449481;118;923570;-76
2022/09/16 00:35:36;;;;;;;6.31;4.19;;;;;;;18.27;88.12;99583.97;449502;118;922942;-76
2022/09/16 00:36:39;;;;;;;5.20;4.68;;;;;;;18.26;88.19;99574.87;447852;118;922620;-76
2022/09/16 00:37:42;;;;;;;5.11;4.67;;;;;;;18.27;88.18;99578.45;446959;118;923002;-76
2022/09/16 00:38:47;;;;;;;4.71;4.28;;;;;;;18.27;88.17;99575.70;446946;118;922921;-76
2022/09/16 00:39:50;;;;;;;5.38;4.34;;;;;;;18.28;88.20;99580.11;446691;118;923061;-77
2022/09/16 00:40:53;;;;;;;4.48;4.08;;;;;;;18.27;88.24;99573.77;446882;118;930516;-76
2022/09/16 00:41:56;;;;;;;5.22;4.16;;;;;;;18.28;88.32;99580.94;446950;118;922988;-77
2022/09/16 00:42:59;;;;;;;5.95;4.19;;;;;;;18.28;88.18;99575.41;446924;118;922681;-77
2022/09/16 00:44:05;;;;;;;4.83;4.42;;;;;;;18.28;88.14;99580.94;446982;118;922437;-77
2022/09/16 00:45:20;;;;;;;5.24;4.52;;;;;;;18.27;88.11;99576.52;446796;118;922642;-76
2022/09/16 00:46:32;;;;;;;6.22;4.97;;;;;;;18.26;88.06;99580.39;446148;119;922598;-76
2022/09/16 00:48:08;;;;;;;4.91;4.23;;;;;;;18.34;88.00;99582.54;494374;105;946768;-77
2022/09/16 00:49:17;;;;;;;4.70;4.30;;;;;;;18.22;87.98;99578.50;483468;109;922970;-76
2022/09/16 00:50:47;;;;;;;5.39;4.17;;;;;;;18.19;88.02;99581.86;481824;110;922510;-77
2022/09/16 00:51:53;;;;;;;4.59;4.18;;;;;;;18.17;88.07;99578.55;481662;110;922978;-77
2022/09/16 00:52:58;;;;;;;5.71;4.86;;;;;;;18.14;88.17;99584.66;478154;109;922480;-77
2022/09/16 00:54:05;;;;;;;5.01;4.56;;;;;;;18.13;88.20;99583.01;480264;109;922902;-77
2022/09/16 00:55:11;;;;;;;5.81;4.56;;;;;;;18.11;88.12;99587.98;476433;111;922572;-77
2022/09/16 00:56:18;;;;;;;4.82;4.42;;;;;;;18.10;88.19;99583.56;476685;111;923010;-76
2022/09/16 00:57:21;;;;;;;5.57;5.17;;;;;;;18.10;88.25;99589.08;478301;110;922609;-77
2022/09/16 00:58:37;;;;;;;6.06;4.96;;;;;;;18.08;88.22;99586.64;477552;109;922852;-77
2022/09/16 00:59:43;;;;;;;5.66;5.16;;;;;;;18.08;88.35;99588.56;477783;109;930522;-77
2022/09/16 01:00:47;;;;;;;5.64;5.22;;;;;;;18.08;88.31;99585.81;477699;111;923037;-77
2022/09/16 01:01:50;;;;;;;6.21;5.18;;;;;;;18.08;88.35;99580.30;474603;110;922679;-77
2022/09/16 01:02:54;;;;;;;6.79;5.44;;;;;;;18.07;88.38;99589.67;475099;109;922446;-77
2022/09/16 01:04:00;;;;;;;5.90;5.35;;;;;;;18.07;88.42;99586.91;477737;109;922950;-78
2022/09/16 01:05:11;;;;;;;5.97;5.37;;;;;;;18.07;88.42;99590.50;481715;110;922623;-76
2022/09/16 01:06:15;;;;;;;;;;;;;;;18.06;88.43;99586.09;485497;110;922357;-76
2022/09/16 01:07:31;;;;;;;6.29;5.71;;;;;;;18.05;88.70;99586.37;481759;109;922666;-75
2022/09/16 01:08:42;;;;;;;6.33;5.70;;;;;;;18.14;88.50;99585.45;482350;110;946761;-77
2022/09/16 01:09:46;;;;;;;5.72;5.22;;;;;;;18.03;88.55;99585.85;473692;112;922583;-77
2022/09/16 01:10:49;;;;;;;6.29;5.69;;;;;;;18.01;88.60;99586.13;473971;112;922820;-76
2022/09/16 01:11:52;;;;;;;6.24;5.52;;;;;;;18.01;88.63;99590.82;473907;112;922606;-77
2022/09/16 01:13:01;;;;;;;7.37;5.69;;;;;;;18.01;88.68;99588.06;467128;112;922445;-77
2022/09/16 01:15:32;;;;;;;6.68;5.79;;;;;;;18.01;88.70;99585.30;463431;114;923011;-76
2022/09/16 01:16:40;;;;;;;5.69;5.12;;;;;;;18.00;88.82;99587.23;457027;116;923479;-77
2022/09/16 01:18:16;;;;;;;6.23;5.63;;;;;;;18.01;88.83;99588.06;456975;116;930582;-77
2022/09/16 01:19:23;;;;;;;6.20;5.67;;;;;;;18.01;88.77;99588.06;452756;117;922794;-77
2022/09/16 01:21:02;;;;;;;6.55;5.93;;;;;;;18.13;88.83;99592.11;476786;109;947107;-77
2022/09/16 01:22:24;;;;;;;8.35;5.88;;;;;;;18.02;88.87;99592.47;470076;112;922489;-77
2022/09/16 01:24:06;;;;;;;6.58;5.84;;;;;;;18.01;88.92;99588.06;464875;113;923076;-77
2022/09/16 01:25:25;;;;;;;6.15;5.61;;;;;;;18.03;89.02;99596.89;462973;113;922601;-77
2022/09/16 01:26:34;;;;;;;6.17;5.57;;;;;;;18.03;89.00;99586.65;458182;113;922741;-77
2022/09/16 01:27:58;;;;;;;6.15;5.56;;;;;;;18.03;89.09;99594.92;458148;114;923075;-77
2022/09/16 01:29:19;;;;;;;11.34;5.87;;;;;;;18.04;89.17;99596.58;463930;113;922546;-76
2022/09/16 01:30:44;;;;;;;6.43;5.32;;;;;;;18.06;89.16;99590.78;455542;114;922561;-76
2022/09/16 01:32:02;;;;;;;6.99;6.32;;;;;;;18.07;89.22;99595.19;459140;114;922485;-77
2022/09/16 01:33:15;;;;;;;5.68;5.23;;;;;;;18.07;89.20;99590.50;460496;114;923549;-77
2022/09/16 01:34:27;;;;;;;6.29;5.77;;;;;;;18.09;89.22;99588.26;460195;114;922905;-76
2022/09/16 01:35:34;;;;;;;6.00;5.46;;;;;;;18.09;89.19;99585.50;464381;114;923300;-77
2022/09/16 01:36:52;;;;;;;6.34;5.71;;;;;;;18.11;89.25;99587.98;464770;113;922450;-77
2022/09/16 01:38:05;;;;;;;6.62;5.21;;;;;;;18.12;89.27;99589.63;463418;113;922849;-77
2022/09/16 01:39:28;;;;;;;6.05;5.49;;;;;;;18.13;89.21;99586.59;448206;114;923266;-77
2022/09/16 01:40:58;;;;;;;5.87;5.47;;;;;;;18.15;89.24;99578.83;460696;113;922600;-77
2022/09/16 01:42:22;;;;;;;7.49;5.32;;;;;;;18.16;89.19;99574.97;460875;114;923686;-77
2022/09/16 01:43:41;;;;;;;5.37;4.97;;;;;;;18.17;89.21;99581.31;461666;113;922890;-77
2022/09/16 01:45:07;;;;;;;5.44;5.01;;;;;;;18.17;89.16;99584.89;462971;113;922562;-76
2022/09/16 01:46:22;;;;;;;5.42;5.00;;;;;;;18.18;89.18;99585.72;460546;113;922494;-77
2022/09/16 01:47:50;;;;;;;7.73;5.24;;;;;;;18.18;89.21;99581.03;459237;114;922533;-76
2022/09/16 01:48:56;;;;;;;6.34;5.82;;;;;;;18.19;89.17;99579.09;460915;113;922564;-77
2022/09/16 01:50:03;;;;;;;6.19;5.58;;;;;;;18.19;89.27;99579.09;461006;113;923049;-77
2022/09/16 01:51:15;;;;;;;5.68;5.26;;;;;;;18.20;89.29;99580.72;459131;113;922630;-78
2022/09/16 01:52:25;;;;;;;6.35;5.51;;;;;;;18.19;89.20;99577.13;459957;114;922542;-75
2022/09/16 01:53:37;;;;;;;5.13;4.74;;;;;;;18.21;89.25;99579.61;464422;113;922505;-78
2022/09/16 01:54:46;;;;;;;5.60;4.99;;;;;;;18.23;89.14;99585.67;464411;114;923231;-78
2022/09/16 01:56:19;;;;;;;5.49;5.00;;;;;;;18.24;89.12;99581.81;461750;113;922833;-76
2022/09/16 01:57:28;;;;;;;5.76;5.26;;;;;;;18.23;89.09;99580.16;464843;114;923062;-76
2022/09/16 01:58:44;;;;;;;5.22;4.76;;;;;;;18.24;89.06;99581.81;461472;113;922871;-76
2022/09/16 01:59:53;;;;;;;6.40;5.82;;;;;;;18.24;89.04;99582.63;452861;115;923372;-76
2022/09/16 02:01:00;;;;;;;6.46;5.93;;;;;;;18.24;89.04;99579.05;456322;115;922732;-76
2022/09/16 02:02:18;;;;;;;5.87;5.34;;;;;;;18.26;89.03;99587.84;456255;115;922546;-76
2022/09/16 02:03:25;;;;;;;6.72;5.82;;;;;;;18.26;89.03;99588.67;456410;115;922969;-76
2022/09/16 02:04:34;;;;;;;5.93;5.38;;;;;;;18.27;89.02;99584.80;451243;115;922530;-76
2022/09/16 02:05:48;;;;;;;6.33;5.32;;;;;;;18.28;88.95;99585.62;452776;116;923142;-76
2022/09/16 02:06:54;;;;;;;6.92;5.31;;;;;;;18.28;88.96;99574.59;456546;116;922770;-77
2022/09/16 02:08:01;;;;;;;7.81;5.13;;;;;;;18.28;88.90;99580.94;452208;115;922892;-77
2022/09/16 02:09:08;;;;;;;6.03;5.29;;;;;;;18.29;88.87;99582.59;454102;116;922564;-76
2022/09/16 02:10:21;;;;;;;5.23;4.79;;;;;;;18.30;88.90;99575.13;455674;115;923050;-77
2022/09/16 02:11:25;;;;;;;8.59;5.39;;;;;;;18.30;88.84;99570.41;450165;115;922681;-78
2022/09/16 02:12:31;;;;;;;5.89;5.50;;;;;;;18.31;88.74;99574.00;455323;114;922552;-77
2022/09/16 02:13:41;;;;;;;5.75;5.31;;;;;;;18.30;88.69;99575.13;456367;116;922536;-77
2022/09/16 02:14:47;;;;;;;6.72;4.92;;;;;;;18.31;88.72;99574.00;456172;115;922455;-77
2022/09/16 02:15:52;;;;;;;6.49;4.67;;;;;;;18.31;88.63;99579.52;456416;114;922612;-77
2022/09/16 02:16:59;;;;;;;7.02;5.49;;;;;;;18.31;88.62;99577.58;457200;114;922801;-77
2022/09/16 02:18:05;;;;;;;5.69;5.28;;;;;;;18.33;88.60;99580.89;457247;114;923028;-77
2022/09/16 02:19:15;;;;;;;6.01;5.22;;;;;;;18.32;88.57;99576.47;456780;114;922679;-77
2022/09/16 02:20:23;;;;;;;6.16;5.58;;;;;;;18.33;88.50;99580.06;458724;114;922515;-78
2022/09/16 02:21:30;;;;;;;5.73;5.33;;;;;;;18.32;88.55;99579.23;459717;114;923157;-77
2022/09/16 02:22:43;;;;;;;5.74;5.26;;;;;;;18.31;88.46;99582.27;458989;114;922919;-77
2022/09/16 02:23:56;;;;;;;6.36;5.68;;;;;;;18.43;88.44;99573.61;482339;110;946914;-77
2022/09/16 02:25:02;;;;;;;6.58;5.73;;;;;;;18.31;88.40;99580.34;473716;112;922599;-77
2022/09/16 02:26:08;;;;;;;5.90;5.42;;;;;;;18.30;88.38;99564.89;473697;112;923325;-77
2022/09/16 02:27:15;;;;;;;6.34;5.73;;;;;;;18.31;88.33;99572.06;473031;112;922575;-77
2022/09/16 02:28:22;;;;;;;6.02;5.52;;;;;;;18.30;88.38;99572.38;465249;114;922643;-77
2022/09/16 02:29:27;;;;;;;6.88;6.34;;;;;;;18.31;88.40;99568.48;464258;114;922940;-77
2022/09/16 02:30:34;;;;;;;6.56;5.42;;;;;;;18.32;88.39;99570.12;465401;113;922559;-77
2022/09/16 02:31:38;;;;;;;6.14;5.57;;;;;;;18.32;88.40;99567.37;465490;113;922580;-77
2022/09/16 02:32:44;;;;;;;4.85;4.45;;;;;;;18.32;88.46;99572.89;465351;114;923074;-77
2022/09/16 02:33:56;;;;;;;5.49;4.96;;;;;;;18.33;88.36;99560.74;465504;113;922580;-77
2022/09/16 02:35:01;;;;;;;5.80;5.21;;;;;;;18.33;88.32;99564.33;465779;113;922379;-77
2022/09/16 02:36:06;;;;;;;5.66;5.23;;;;;;;18.34;88.36;99562.39;466439;113;922649;-77
2022/09/16 02:37:18;;;;;;;5.93;5.49;;;;;;;18.34;88.24;99568.73;466490;113;922610;-77
2022/09/16 02:38:27;;;;;;;5.66;5.11;;;;;;;18.34;88.25;99565.16;466358;113;922986;-76
2022/09/16 02:39:33;;;;;;;5.54;5.09;;;;;;;18.34;88.25;99562.39;466405;113;922747;-76
2022/09/16 02:40:43;;;;;;;5.63;5.11;;;;;;;18.34;88.32;99560.45;466379;113;922444;-76
2022/09/16 02:41:47;;;;;;;5.94;5.43;;;;;;;18.36;88.26;99565.66;466318;113;922690;-76
2022/09/16 02:42:51;;;;;;;5.82;5.32;;;;;;;18.37;88.17;99566.48;466454;113;923351;-75
2022/09/16 02:43:53;;;;;;;6.21;5.60;;;;;;;18.34;88.17;99563.22;466408;113;922912;-77
2022/09/16 02:44:58;;;;;;;6.39;5.76;;;;;;;18.35;88.17;99564.05;466397;113;930374;-76
2022/09/16 02:46:14;;;;;;;5.48;5.04;;;;;;;18.34;88.14;99562.39;466367;113;922476;-76
2022/09/16 02:47:23;;;;;;;5.68;5.03;;;;;;;18.35;88.20;99566.80;466312;113;922964;-76
2022/09/16 02:48:45;;;;;;;6.61;4.68;;;;;;;18.34;88.12;99571.50;465479;113;922547;-76
2022/09/16 02:49:51;;;;;;;6.54;5.61;;;;;;;18.34;88.10;99578.95;466328;113;922475;-76
2022/09/16 02:51:14;;;;;;;6.17;5.64;;;;;;;18.34;88.15;99571.50;466354;113;922826;-76
2022/09/16 02:52:30;;;;;;;6.15;5.70;;;;;;;18.33;88.11;99572.61;466071;113;923157;-76
2022/09/16 02:53:54;;;;;;;5.57;5.11;;;;;;;18.33;88.11;99569.02;465572;113;922592;-76
2022/09/16 02:55:15;;;;;;;6.36;5.86;;;;;;;18.33;88.14;99566.26;465741;113;922580;-76
2022/09/16 02:56:22;;;;;;;;;;;;;;;18.32;88.17;99570.12;454997;116;922171;-77
2022/09/16 02:57:26;;;;;;;6.19;5.69;;;;;;;18.31;88.22;99566.55;457190;116;923144;-77
2022/09/16 02:58:29;;;;;;;6.15;5.65;;;;;;;18.29;88.27;99566.03;458050;114;922627;-77
2022/09/16 02:59:32;;;;;;;5.71;5.31;;;;;;;18.28;88.33;99571.83;465462;114;930525;-77
2022/09/16 03:00:39;;;;;;;6.28;5.82;;;;;;;18.27;88.32;99576.52;465498;114;922846;-77
2022/09/16 03:01:44;;;;;;;6.48;5.84;;;;;;;18.28;88.33;99585.62;465279;114;922541;-77
2022/09/16 03:02:48;;;;;;;5.96;5.47;;;;;;;18.27;88.32;99586.73;465287;114;922526;-77
2022/09/16 03:03:56;;;;;;;6.17;5.66;;;;;;;18.28;88.29;99588.39;465482;114;922987;-77
2022/09/16 03:04:59;;;;;;;6.60;6.04;;;;;;;18.27;88.24;99595.84;465308;114;923009;-77
2022/09/16 03:06:11;;;;;;;6.04;5.58;;;;;;;18.26;88.34;99590.59;465500;114;922697;-77
2022/09/16 03:07:15;;;;;;;6.19;5.55;;;;;;;18.25;88.28;99587.02;465239;113;922549;-77
2022/09/16 03:08:18;;;;;;;12.82;5.46;;;;;;;18.25;88.28;99589.77;465378;114;923117;-77
2022/09/16 03:09:23;;;;;;;6.34;5.83;;;;;;;18.27;88.27;99597.77;465511;114;923039;-77
2022/09/16 03:10:29;;;;;;;5.58;5.17;;;;;;;18.25;88.24;99592.53;465355;114;922578;-77
2022/09/16 03:11:36;;;;;;;6.35;5.74;;;;;;;18.26;88.21;99593.36;465439;113;923217;-76
2022/09/16 03:12:45;;;;;;;6.19;5.72;;;;;;;18.25;88.18;99598.05;463052;113;922724;-75
2022/09/16 03:14:01;;;;;;;6.22;5.76;;;;;;;18.24;88.26;99596.44;465328;114;923402;-77
2022/09/16 03:15:23;;;;;;;6.57;6.09;;;;;;;18.23;88.13;99594.78;465314;114;922539;-77
2022/09/16 03:16:36;;;;;;;5.59;5.19;;;;;;;18.23;88.16;99588.44;466379;113;922977;-75
2022/09/16 03:17:45;;;;;;;8.86;5.86;;;;;;;18.21;88.06;99596.16;466321;113;922669;-76
2022/09/16 03:19:03;;;;;;;5.69;5.29;;;;;;;18.19;88.10;99590.13;465933;113;922819;-76
2022/09/16 03:20:29;;;;;;;6.26;5.69;;;;;;;18.17;88.08;99587.66;440705;119;923400;-76
2022/09/16 03:22:48;;;;;;;6.51;6.04;;;;;;;18.15;88.20;99605.59;456479;116;922995;-76
2022/09/16 03:24:29;;;;;;;6.97;6.25;;;;;;;18.14;88.29;99604.77;457272;116;923124;-77
2022/09/16 03:25:50;;;;;;;6.52;6.03;;;;;;;18.15;88.35;99608.35;457401;116;922665;-75
2022/09/16 03:27:12;;;;;;;6.18;5.80;;;;;;;18.14;88.40;99613.05;456864;116;922657;-77
2022/09/16 03:28:19;;;;;;;6.51;6.02;;;;;;;18.13;88.49;99614.18;440644;120;922910;-75
2022/09/16 03:29:25;;;;;;;6.47;5.97;;;;;;;18.15;88.53;99616.62;449098;118;922775;-76
2022/09/16 03:30:32;;;;;;;7.10;6.52;;;;;;;18.14;88.55;99613.05;456855;115;922515;-76
2022/09/16 03:31:39;;;;;;;6.32;5.74;;;;;;;18.14;88.57;99612.25;464051;113;923218;-76
2022/09/16 03:32:51;;;;;;;7.87;6.23;;;;;;;18.14;88.57;99604.77;465920;113;922547;-77
2022/09/16 03:33:57;;;;;;;6.54;6.08;;;;;;;18.15;88.64;99609.18;465699;113;922941;-76
2022/09/16 03:35:07;;;;;;;7.07;6.44;;;;;;;18.16;88.61;99610.83;465088;114;922563;-76
2022/09/16 03:36:14;;;;;;;7.27;6.77;;;;;;;18.16;88.61;99612.77;463452;114;922801;-76
2022/09/16 03:37:20;;;;;;;7.76;7.21;;;;;;;18.17;88.73;99611.66;465210;114;928868;-76
2022/09/16 03:38:23;;;;;;;7.43;6.98;;;;;;;18.19;88.68;99614.97;465261;114;923100;-76
2022/09/16 03:39:27;;;;;;;8.05;7.45;;;;;;;18.19;88.70;99618.52;456642;116;922537;-77
2022/09/16 03:40:32;;;;;;;7.65;7.07;;;;;;;18.20;88.75;99619.34;457091;114;930534;-76
2022/09/16 03:41:36;;;;;;;8.23;7.49;;;;;;;18.21;88.76;99610.79;465353;114;923127;-77
2022/09/16 03:42:40;;;;;;;9.44;7.62;;;;;;;18.23;88.68;99621.55;465546;114;922675;-77
2022/09/16 03:43:53;;;;;;;7.30;6.61;;;;;;;18.25;88.69;99616.55;465450;114;923492;-76
2022/09/16 03:44:56;;;;;;;7.77;7.23;;;;;;;18.24;88.71;99615.75;465345;114;922763;-76
2022/09/16 03:45:59;;;;;;;8.28;7.65;;;;;;;18.27;88.73;99617.09;465500;114;923039;-76
2022/09/16 03:47:03;;;;;;;8.88;8.03;;;;;;;18.27;88.71;99617.91;465572;114;923016;-76
2022/09/16 03:48:06;;;;;;;8.59;7.99;;;;;;;18.28;88.69;99622.33;465411;114;922454;-76
2022/09/16 03:49:09;;;;;;;8.59;7.98;;;;;;;18.28;88.76;99618.74;465583;114;922594;-76
2022/09/16 03:50:14;;;;;;;8.75;8.07;;;;;;;18.29;88.81;99621.22;465352;114;922502;-76
2022/09/16 03:51:17;;;;;;;9.23;8.53;;;;;;;18.29;88.70;99620.39;465320;113;922670;-76
2022/09/16 03:52:20;;;;;;;8.32;7.78;;;;;;;18.30;88.74;99616.53;456096;116;922608;-79
2022/09/16 03:53:23;;;;;;;9.13;8.48;;;;;;;18.30;88.77;99614.56;456211;116;922510;-76
2022/09/16 03:54:26;;;;;;;9.35;8.57;;;;;;;18.33;88.78;99615.94;456132;116;922455;-77
2022/09/16 03:55:28;;;;;;;7.81;7.19;;;;;;;18.33;88.78;99625.04;456181;116;922554;-77
2022/09/16 03:56:31;;;;;;;8.63;8.04;;;;;;;18.34;88.74;99623.11;456206;116;923113;-77
2022/09/16 03:57:34;;;;;;;9.22;8.54;;;;;;;18.35;88.75;99622.00;456242;116;924099;-77
2022/09/16 03:58:37;;;;;;;8.99;8.46;;;;;;;18.37;88.79;99619.75;457375;114;923081;-77
2022/09/16 03:59:40;;;;;;;9.26;8.53;;;;;;;18.37;88.73;99617.00;462134;114;922589;-77
2022/09/16 04:00:49;;;;;;;8.66;8.06;;;;;;;18.38;88.76;99624.17;462146;114;922564;-77
2022/09/16 04:01:53;;;;;;;9.91;9.00;;;;;;;18.38;88.75;99621.41;461997;114;922523;-76
2022/09/16 04:02:56;;;;;;;9.66;8.98;;;;;;;18.39;88.79;99620.30;462167;114;923111;-76
2022/09/16 04:03:59;;;;;;;12.18;9.26;;;;;;;18.40;88.77;99621.95;462161;114;922920;-76
2022/09/16 04:05:03;;;;;;;9.38;8.73;;;;;;;18.42;88.80;99618.88;462125;114;922503;-76
2022/09/16 04:06:06;;;;;;;9.54;8.86;;;;;;;18.42;88.84;99622.47;462117;114;922602;-77
2022/09/16 04:07:09;;;;;;;10.82;9.89;;;;;;;18.43;88.86;99623.30;462183;114;923287;-77
2022/09/16 04:08:12;;;;;;;9.71;9.07;;;;;;;18.45;88.91;99619.14;462199;114;923011;-77
2022/09/16 04:09:15;;;;;;;10.65;9.98;;;;;;;18.46;88.90;99626.32;462167;114;922509;-77
2022/09/16 04:10:18;;;;;;;10.27;9.53;;;;;;;18.49;88.95;99616.62;462150;114;922810;-78
2022/09/16 04:11:22;;;;;;;10.77;9.83;;;;;;;18.50;88.93;99630.14;462156;114;923070;-78
2022/09/16 04:12:25;;;;;;;10.81;10.11;;;;;;;18.51;89.02;99617.98;462177;114;922453;-78
2022/09/16 04:13:30;;;;;;;11.17;10.32;;;;;;;18.53;88.97;99620.44;462126;114;922730;-75
2022/09/16 04:14:33;;;;;;;10.69;9.89;;;;;;;18.56;88.99;99625.42;461934;114;922585;-76
2022/09/16 04:15:37;;;;;;;10.32;9.62;;;;;;;18.57;89.08;99618.80;460312;114;930548;-77
2022/09/16 04:16:40;;;;;;;10.96;10.13;;;;;;;18.59;88.96;99624.83;457325;116;922567;-77
2022/09/16 04:17:45;;;;;;;10.39;9.56;;;;;;;18.60;89.00;99616.27;448447;118;930709;-77
2022/09/16 04:18:48;;;;;;;10.18;9.40;;;;;;;18.62;89.08;99622.34;448948;118;922565;-77
2022/09/16 04:19:51;;;;;;;11.11;10.32;;;;;;;18.64;89.05;99613.73;443676;119;922579;-77
2022/09/16 04:20:59;;;;;;;10.97;10.11;;;;;;;18.65;89.07;99618.98;448837;118;923061;-77
2022/09/16 04:22:02;;;;;;;10.73;9.92;;;;;;;18.66;89.00;99615.11;448617;118;930490;-76
2022/09/16 04:23:05;;;;;;;10.53;9.76;;;;;;;18.69;88.95;99625.55;443567;119;922571;-76
2022/09/16 04:24:08;;;;;;;10.84;9.98;;;;;;;18.70;88.98;99609.81;449122;118;922783;-76
2022/09/16 04:25:13;;;;;;;11.23;10.53;;;;;;;18.71;88.99;99611.47;441824;120;922599;-76
2022/09/16 04:26:17;;;;;;;11.51;10.60;;;;;;;18.73;88.98;99607.31;449484;118;922927;-76
2022/09/16 04:27:20;;;;;;;10.59;9.81;;;;;;;18.74;89.00;99603.41;441476;120;930187;-76
2022/09/16 04:28:24;;;;;;;10.12;9.41;;;;;;;18.77;88.98;99606.71;441609;120;922700;-76
2022/09/16 04:29:27;;;;;;;11.44;9.93;;;;;;;18.78;88.90;99608.37;441388;120;923185;-76
2022/09/16 04:30:30;;;;;;;10.91;10.16;;;;;;;18.79;88.83;99610.84;448724;118;922795;-76
2022/09/16 04:31:34;;;;;;;10.09;9.33;;;;;;;18.79;88.83;99619.13;458009;115;922802;-76
2022/09/16 04:32:37;;;;;;;10.99;10.28;;;;;;;18.82;88.87;99628.75;449498;118;923448;-76
2022/09/16 04:33:40;;;;;;;10.04;9.42;;;;;;;18.83;88.90;99622.95;448554;118;922810;-78
2022/09/16 04:34:43;;;;;;;10.86;10.17;;;;;;;18.84;88.87;99623.77;454291;116;923473;-77
2022/09/16 04:35:46;;;;;;;11.21;10.48;;;;;;;18.85;88.86;99625.42;454322;116;930046;-78
2022/09/16 04:36:50;;;;;;;11.28;10.35;;;;;;;18.88;88.82;99622.06;446969;118;923281;-76
2022/09/16 04:37:53;;;;;;;11.15;10.34;;;;;;;18.90;88.82;99625.37;446864;118;922570;-76
2022/09/16 04:38:56;;;;;;;10.74;9.74;;;;;;;18.90;88.90;99626.19;446813;118;922548;-77
2022/09/16 04:39:58;;;;;;;11.25;10.23;;;;;;;18.92;88.90;99628.64;446847;118;922618;-76
2022/09/16 04:41:09;;;;;;;10.60;9.67;;;;;;;18.95;88.90;99622.55;446424;118;922647;-77
2022/09/16 04:42:12;;;;;;;10.78;9.87;;;;;;;18.98;88.91;99621.95;446728;118;923239;-77
2022/09/16 04:43:15;;;;;;;10.44;9.74;;;;;;;18.99;88.92;99623.59;446920;118;923054;-77
2022/09/16 04:44:18;;;;;;;11.25;10.32;;;;;;;19.02;88.83;99618.30;446895;118;922959;-77
2022/09/16 04:45:21;;;;;;;10.91;10.11;;;;;;;19.04;88.82;99618.01;446936;118;922635;-77
2022/09/16 04:46:27;;;;;;;11.28;10.44;;;;;;;19.05;88.82;99612.20;446844;118;922957;-76
2022/09/16 04:47:30;;;;;;;10.64;9.67;;;;;;;19.07;88.70;99615.50;446700;118;923030;-76
2022/09/16 04:48:33;;;;;;;10.38;9.79;;;;;;;19.10;88.74;99614.08;447592;118;922628;-76
2022/09/16 04:49:36;;;;;;;11.38;10.58;;;;;;;19.10;88.76;99609.38;454527;116;922585;-76
2022/09/16 04:50:39;;;;;;;11.74;10.74;;;;;;;19.12;88.75;99614.61;454518;116;922676;-77
2022/09/16 04:51:42;;;;;;;10.81;10.11;;;;;;;19.14;88.70;99615.95;454397;116;922914;-77
2022/09/16 04:52:45;;;;;;;11.55;10.51;;;;;;;19.16;88.68;99615.66;454482;116;923149;-76
2022/09/16 04:53:49;;;;;;;10.53;9.83;;;;;;;19.18;88.67;99616.20;454421;116;923098;-77
2022/09/16 04:54:52;;;;;;;11.63;10.54;;;;;;;19.19;88.61;99623.35;454404;116;922999;-77
2022/09/16 04:56:07;;;;;;;10.81;10.02;;;;;;;19.21;88.62;99629.42;454452;116;922560;-76
2022/09/16 04:57:10;;;;;;;11.59;10.62;;;;;;;19.23;88.65;99624.43;454299;116;922631;-76
2022/09/16 04:58:13;;;;;;;11.11;10.34;;;;;;;19.24;88.55;99631.58;454513;116;922533;-76
2022/09/16 04:59:16;;;;;;;11.77;10.90;;;;;;;19.25;88.55;99627.70;448217;116;922662;-76
2022/09/16 05:00:19;;;;;;;10.74;10.01;;;;;;;19.27;88.61;99628.24;445565;119;923574;-76
2022/09/16 05:01:24;;;;;;;11.66;10.74;;;;;;;19.30;88.66;99626.81;443105;119;922607;-77
2022/09/16 05:02:28;;;;;;;12.21;11.15;;;;;;;19.31;88.61;99625.70;445411;119;922569;-76
2022/09/16 05:03:31;;;;;;;11.92;11.04;;;;;;;19.34;88.62;99625.95;442954;119;922854;-76
2022/09/16 05:04:34;;;;;;;12.49;11.59;;;;;;;19.37;88.58;99632.81;445586;119;930315;-77
2022/09/16 05:05:37;;;;;;;12.77;11.71;;;;;;;19.38;88.53;99629.77;443079;119;922904;-77
2022/09/16 05:06:40;;;;;;;11.65;10.81;;;;;;;19.41;88.49;99628.33;445625;119;923002;-77
2022/09/16 05:07:43;;;;;;;12.13;11.23;;;;;;;19.43;88.46;99631.63;443052;119;922517;-77
2022/09/16 05:08:47;;;;;;;13.06;10.69;;;;;;;19.45;88.52;99616.44;445581;119;922776;-76
2022/09/16 05:09:50;;;;;;;12.59;11.64;;;;;;;19.47;88.42;99616.12;442918;119;922947;-77
2022/09/16 05:10:53;;;;;;;12.80;12.01;;;;;;;19.48;88.38;99612.24;445584;119;923367;-77
2022/09/16 05:11:56;;;;;;;12.20;11.08;;;;;;;19.51;88.32;99617.20;443024;119;923034;-77
2022/09/16 05:12:59;;;;;;;11.89;11.07;;;;;;;19.53;88.22;99612.17;445614;119;922972;-78
2022/09/16 05:14:04;;;;;;;12.71;11.71;;;;;;;19.54;88.25;99606.36;443055;119;922951;-77
2022/09/16 05:15:08;;;;;;;12.58;11.08;;;;;;;19.55;88.24;99599.71;445443;119;923039;-77
2022/09/16 05:16:14;;;;;;;13.77;12.69;;;;;;;19.58;88.24;99617.63;440672;120;922974;-77